Time;durP1;ratioP1;P1;durP2;ratioP2;P2;SDS_P1;SDS_P2;PMS_P1;PMS_P2;Temp;Humidity;BMP_temperature;BMP_pressure;BME280_temperature;BME280_humidity;BME280_pressure;Samples;Min_cycle;Max_cycle;Signal;HPM_P1;HPM_P2
2020/12/08 00:00:14;;;;;;;35.00;17.50;;;;;;;2.77;74.16;100077.44;1725528;80;26318;-69
2020/12/08 00:02:43;;;;;;;41.70;18.52;;;;;;;2.70;74.18;100072.72;1723272;80;25831;-69
2020/12/08 00:05:13;;;;;;;36.08;17.62;;;;;;;2.75;74.27;100084.53;1727995;80;26820;-69
2020/12/08 00:07:41;;;;;;;41.70;18.00;;;;;;;2.70;74.17;100079.34;1740510;80;25906;-69
2020/12/08 00:10:09;;;;;;;37.08;16.77;;;;;;;2.62;74.12;100072.01;1699790;81;27023;-70
2020/12/08 00:12:37;;;;;;;33.50;17.17;;;;;;;2.58;74.17;100075.20;1704538;83;25832;-70
2020/12/08 00:15:06;;;;;;;39.50;17.65;;;;;;;2.57;74.31;100073.91;1718880;81;25733;-69
2020/12/08 00:17:34;;;;;;;46.08;16.52;;;;;;;2.56;74.40;100082.75;1703744;81;27413;-69
2020/12/08 00:20:06;;;;;;;41.65;17.10;;;;;;;2.53;74.32;100085.45;1728168;81;26047;-69
2020/12/08 00:22:34;;;;;;;;;;;;;;;2.50;74.33;100085.52;1731689;81;26155;-69
2020/12/08 00:25:06;;;;;;;42.73;19.23;;;;;;;2.47;74.43;100085.57;1699734;81;26000;-69
2020/12/08 00:27:36;;;;;;;38.17;18.40;;;;;;;2.44;74.56;100079.02;1711452;81;25904;-69
2020/12/08 00:30:13;;;;;;;34.15;17.62;;;;;;;2.40;74.48;100082.17;1735445;81;27366;-69
2020/12/08 00:32:43;;;;;;;40.33;19.32;;;;;;;2.37;74.51;100077.39;1724769;81;26469;-69
2020/12/08 00:35:13;;;;;;;39.97;19.37;;;;;;;2.33;74.58;100078.35;1714586;81;25924;-70
2020/12/08 00:37:45;;;;;;;41.30;17.98;;;;;;;2.33;74.68;100075.70;1723557;81;25921;-70
2020/12/08 00:40:13;;;;;;;39.78;18.15;;;;;;;2.35;74.69;100066.84;1702043;81;26198;-70
2020/12/08 00:42:41;;;;;;;45.80;18.77;;;;;;;2.33;74.69;100071.29;1735979;81;28125;-70
2020/12/08 00:45:11;;;;;;;44.83;20.00;;;;;;;2.28;74.71;100070.50;1755492;80;25824;-72
2020/12/08 00:47:38;;;;;;;46.75;21.42;;;;;;;2.25;74.80;100070.11;1711768;81;26373;-70
2020/12/08 00:50:07;;;;;;;48.30;21.48;;;;;;;2.21;74.80;100071.06;1728786;80;25853;-69
2020/12/08 00:52:35;;;;;;;42.73;20.20;;;;;;;2.17;74.85;100075.99;1752229;80;25769;-70
2020/12/08 00:55:03;;;;;;;41.05;18.55;;;;;;;2.17;74.96;100075.12;1739001;81;27513;-71
2020/12/08 00:57:33;;;;;;;42.08;18.85;;;;;;;2.15;74.93;100075.15;1743671;81;25862;-70
2020/12/08 01:00:01;;;;;;;42.10;18.60;;;;;;;2.15;74.98;100080.44;1708907;81;25993;-71
2020/12/08 01:02:28;;;;;;;40.73;20.65;;;;;;;2.17;75.10;100069.38;1753954;80;26636;-70
2020/12/08 01:04:56;;;;;;;40.52;18.55;;;;;;;2.18;75.12;100062.33;1737984;80;25794;-71
2020/12/08 01:07:24;;;;;;;47.67;20.30;;;;;;;2.19;75.13;100070.23;1749270;80;26711;-71
2020/12/08 01:09:51;;;;;;;42.55;18.70;;;;;;;2.18;75.15;100069.80;1734492;80;26451;-71
2020/12/08 01:12:19;;;;;;;46.45;21.40;;;;;;;2.16;75.12;100064.13;1727928;80;26535;-70
2020/12/08 01:14:47;;;;;;;42.38;20.12;;;;;;;2.14;75.23;100072.08;1714118;81;26471;-71
2020/12/08 01:17:14;;;;;;;40.45;19.27;;;;;;;2.14;75.25;100072.08;1735549;81;25838;-71
2020/12/08 01:19:42;;;;;;;42.45;19.15;;;;;;;2.14;75.26;100071.20;1758211;80;28683;-69
2020/12/08 01:22:10;;;;;;;35.23;16.90;;;;;;;2.15;75.29;100080.44;1759671;80;25891;-69
2020/12/08 01:24:38;;;;;;;40.50;18.77;;;;;;;2.12;75.21;100080.48;1717354;81;25819;-69
2020/12/08 01:27:05;;;;;;;47.05;21.45;;;;;;;2.14;75.38;100079.14;1719271;81;26540;-69
2020/12/08 01:29:33;;;;;;;36.60;18.87;;;;;;;2.16;75.45;100083.95;1736983;80;25776;-69
2020/12/08 01:32:01;;;;;;;49.42;21.75;;;;;;;2.20;75.44;100075.94;1748410;79;27422;-69
2020/12/08 01:34:28;;;;;;;49.80;21.15;;;;;;;2.19;75.46;100080.80;1750201;80;25868;-69
2020/12/08 01:36:56;;;;;;;49.88;19.73;;;;;;;2.18;75.47;100086.98;1720353;80;26398;-69
2020/12/08 01:39:24;;;;;;;46.42;21.35;;;;;;;2.17;75.36;100081.73;1699830;81;25804;-69
2020/12/08 01:41:56;;;;;;;48.60;21.20;;;;;;;2.15;75.50;100083.53;1697230;82;25884;-69
2020/12/08 01:44:24;;;;;;;42.17;18.40;;;;;;;2.14;75.53;100083.11;1696792;81;27966;-70
2020/12/08 01:46:52;;;;;;;40.83;18.55;;;;;;;2.15;75.54;100076.47;1697368;83;26113;-70
2020/12/08 01:49:20;;;;;;;48.02;21.23;;;;;;;2.19;75.59;100084.77;1704133;81;26702;-70
2020/12/08 01:51:47;;;;;;;38.95;19.73;;;;;;;2.18;75.52;100075.09;1707204;82;26615;-70
2020/12/08 01:54:16;;;;;;;46.92;22.25;;;;;;;2.18;75.61;100082.15;1705177;81;25841;-69
2020/12/08 01:56:43;;;;;;;40.63;20.25;;;;;;;2.18;75.65;100082.15;1707618;82;28027;-70
2020/12/08 01:59:11;;;;;;;51.42;22.27;;;;;;;2.17;75.56;100089.21;1704459;81;26274;-70
2020/12/08 02:01:39;;;;;;;48.38;22.90;;;;;;;2.12;75.63;100090.19;1711353;82;25887;-70
2020/12/08 02:04:07;;;;;;;44.73;22.62;;;;;;;2.12;75.67;100086.23;1704576;81;26683;-70
2020/12/08 02:06:35;;;;;;;49.25;21.10;;;;;;;2.11;75.69;100081.39;1711157;81;25926;-70
2020/12/08 02:09:03;;;;;;;40.67;20.90;;;;;;;2.13;75.78;100076.95;1702383;83;27762;-70
2020/12/08 02:11:30;;;;;;;49.18;22.20;;;;;;;2.17;75.74;100080.41;1688317;82;25871;-69
2020/12/08 02:13:58;;;;;;;44.30;21.90;;;;;;;2.18;75.79;100077.73;1688266;81;26049;-69
2020/12/08 02:16:26;;;;;;;50.67;22.15;;;;;;;2.19;75.75;100075.52;1672831;83;26653;-70
2020/12/08 02:18:56;;;;;;;54.65;24.18;;;;;;;2.17;75.74;100077.31;1704269;83;25889;-70
2020/12/08 02:21:33;;;;;;;49.33;22.42;;;;;;;2.15;75.78;100077.80;1691061;83;28323;-72
2020/12/08 02:24:02;;;;;;;50.40;24.23;;;;;;;2.12;75.67;100083.59;1678815;84;26399;-70
2020/12/08 02:26:30;;;;;;;52.43;23.95;;;;;;;2.07;75.84;100082.34;1684916;82;26028;-70
2020/12/08 02:28:57;;;;;;;41.70;21.60;;;;;;;2.08;75.85;100084.09;1698920;82;26143;-70
2020/12/08 02:31:25;;;;;;;46.53;22.75;;;;;;;2.08;75.91;100081.45;1692486;81;25834;-70
2020/12/08 02:33:53;;;;;;;48.73;22.17;;;;;;;2.09;75.87;100087.16;1693291;81;27515;-71
2020/12/08 02:36:20;;;;;;;46.35;22.30;;;;;;;2.09;75.93;100081.87;1666566;82;26389;-72
2020/12/08 02:38:48;;;;;;;45.23;21.30;;;;;;;2.08;75.92;100080.13;1739153;81;26546;-70
2020/12/08 02:41:16;;;;;;;46.63;21.70;;;;;;;2.04;75.85;100077.11;1714457;81;25918;-69
2020/12/08 02:43:44;;;;;;;50.58;23.40;;;;;;;2.05;75.94;100074.89;1767489;79;25858;-70
2020/12/08 02:46:12;;;;;;;48.95;22.70;;;;;;;2.01;75.91;100070.56;1734393;79;27763;-69
2020/12/08 02:48:40;;;;;;;52.27;23.50;;;;;;;1.97;75.99;100079.44;1772668;79;25995;-70
2020/12/08 02:51:07;;;;;;;57.93;24.05;;;;;;;1.97;75.98;100078.12;1743109;79;25859;-70
2020/12/08 02:53:35;;;;;;;44.70;20.32;;;;;;;1.96;76.01;100085.63;1754547;79;26516;-70
2020/12/08 02:56:03;;;;;;;46.80;21.57;;;;;;;1.96;75.99;100081.66;1738441;81;25865;-70
2020/12/08 02:58:31;;;;;;;40.48;19.52;;;;;;;1.98;76.09;100083.83;1763497;79;27345;-70
2020/12/08 03:00:58;;;;;;;48.65;22.15;;;;;;;2.00;76.09;100075.42;1763796;79;25788;-70
2020/12/08 03:03:26;;;;;;;41.40;20.50;;;;;;;2.01;76.15;100081.13;1758527;79;25773;-69
2020/12/08 03:05:54;;;;;;;47.48;22.50;;;;;;;2.01;76.08;100082.45;1764437;79;26048;-70
2020/12/08 03:08:21;;;;;;;47.20;21.33;;;;;;;1.97;76.12;100090.02;1740738;79;26176;-69
2020/12/08 03:10:49;;;;;;;51.65;21.45;;;;;;;1.98;76.20;100089.11;1740366;80;26213;-69
2020/12/08 03:13:17;;;;;;;50.33;22.35;;;;;;;1.95;76.17;100093.13;1737507;79;25913;-71
2020/12/08 03:15:45;;;;;;;46.25;22.17;;;;;;;1.95;76.19;100092.68;1736215;80;25878;-71
2020/12/08 03:18:12;;;;;;;47.33;23.57;;;;;;;1.99;76.27;100099.23;1760039;79;26258;-71
2020/12/08 03:20:40;;;;;;;51.42;22.20;;;;;;;2.00;76.20;100091.28;1729012;80;25807;-71
2020/12/08 03:23:09;;;;;;;48.90;22.40;;;;;;;2.03;76.27;100099.61;1746726;80;28044;-71
2020/12/08 03:25:37;;;;;;;48.73;22.42;;;;;;;2.06;76.35;100097.78;1736861;79;25699;-69
2020/12/08 03:28:07;;;;;;;59.15;25.62;;;;;;;2.11;76.39;100091.09;1737258;80;25802;-69
2020/12/08 03:30:34;;;;;;;66.33;26.62;;;;;;;2.12;76.28;100086.23;1729295;81;26356;-69
2020/12/08 03:33:02;;;;;;;59.20;24.35;;;;;;;2.12;76.29;100077.84;1774971;79;25717;-69
2020/12/08 03:35:31;;;;;;;48.08;23.75;;;;;;;2.06;76.19;100076.64;1763056;79;27792;-69
2020/12/08 03:38:00;;;;;;;51.40;23.57;;;;;;;2.01;76.23;100075.84;1760992;79;25848;-69
2020/12/08 03:40:28;;;;;;;49.25;22.58;;;;;;;2.00;76.21;100081.16;1753420;80;25799;-69
2020/12/08 03:42:56;;;;;;;49.83;23.35;;;;;;;1.99;76.24;100078.09;1721775;81;25959;-69
2020/12/08 03:45:24;;;;;;;44.30;22.82;;;;;;;1.97;76.24;100074.16;1713981;81;26533;-69
2020/12/08 03:47:51;;;;;;;53.17;22.98;;;;;;;1.95;76.30;100075.95;1744876;80;27053;-69
2020/12/08 03:50:19;;;;;;;50.12;23.92;;;;;;;1.98;76.40;100079.86;1740585;80;25812;-69
2020/12/08 03:52:47;;;;;;;47.93;22.82;;;;;;;1.98;76.38;100073.26;1716076;81;25957;-68
2020/12/08 03:55:15;;;;;;;48.17;21.62;;;;;;;1.97;76.38;100083.41;1721507;80;25912;-69
2020/12/08 03:57:42;;;;;;;44.93;22.05;;;;;;;1.90;76.24;100072.52;1719807;81;25867;-69
2020/12/08 04:00:11;;;;;;;45.50;21.12;;;;;;;1.87;76.30;100077.86;1746787;80;28411;-70
2020/12/08 04:02:39;;;;;;;45.17;21.15;;;;;;;1.87;76.40;100073.44;1732779;81;25413;-70
2020/12/08 04:05:07;;;;;;;50.75;24.00;;;;;;;1.85;76.34;100076.56;1747563;80;25846;-70
2020/12/08 04:07:34;;;;;;;48.48;22.62;;;;;;;1.89;76.45;100086.62;1732761;80;25843;-70
2020/12/08 04:10:02;;;;;;;49.67;21.60;;;;;;;1.90;76.43;100089.69;1718660;81;25755;-69
2020/12/08 04:12:30;;;;;;;51.42;24.18;;;;;;;1.88;76.36;100093.69;1728130;80;27799;-69
2020/12/08 04:14:58;;;;;;;46.98;21.52;;;;;;;1.86;76.46;100093.28;1710328;81;26474;-70
2020/12/08 04:17:25;;;;;;;49.73;24.12;;;;;;;1.83;76.41;100094.66;1745749;80;25934;-70
2020/12/08 04:19:53;;;;;;;51.77;23.90;;;;;;;1.78;76.47;100094.73;1737522;80;26429;-70
2020/12/08 04:22:22;;;;;;;44.30;20.12;;;;;;;1.81;76.55;100090.72;1748651;79;25988;-70
2020/12/08 04:24:50;;;;;;;55.78;23.05;;;;;;;1.83;76.54;100090.70;1767862;80;27742;-70
2020/12/08 04:27:17;;;;;;;47.27;22.05;;;;;;;1.84;76.60;100093.31;1758669;80;25928;-70
2020/12/08 04:29:45;;;;;;;48.95;21.73;;;;;;;1.88;76.62;100092.36;1718246;81;25719;-69
2020/12/08 04:32:13;;;;;;;43.02;21.50;;;;;;;1.88;76.62;100096.78;1711572;81;26505;-69
2020/12/08 04:34:42;;;;;;;54.13;24.10;;;;;;;1.90;76.54;100093.20;1724567;81;26003;-71
2020/12/08 04:37:12;;;;;;;58.42;22.93;;;;;;;1.86;76.54;100100.77;1750047;81;26053;-70
2020/12/08 04:39:39;;;;;;;49.75;23.60;;;;;;;1.81;76.51;100101.30;1731318;81;26224;-69
2020/12/08 04:42:07;;;;;;;44.63;22.37;;;;;;;1.77;76.52;100102.69;1740538;81;25859;-71
2020/12/08 04:44:35;;;;;;;48.70;24.12;;;;;;;1.76;76.61;100102.27;1738187;80;26230;-70
2020/12/08 04:47:06;;;;;;;44.67;22.05;;;;;;;1.76;76.59;100103.13;1717448;81;25776;-72
2020/12/08 04:49:34;;;;;;;57.93;24.43;;;;;;;1.80;76.65;100105.28;1707071;81;27430;-70
2020/12/08 04:52:01;;;;;;;49.50;24.37;;;;;;;1.80;76.68;100103.51;1738281;80;25781;-70
2020/12/08 04:54:29;;;;;;;46.00;22.85;;;;;;;1.81;76.72;100103.94;1745295;81;25772;-70
2020/12/08 04:56:57;;;;;;;48.78;24.50;;;;;;;1.79;76.60;100102.21;1711461;81;26419;-72
2020/12/08 04:59:25;;;;;;;52.20;24.65;;;;;;;1.77;76.61;100103.56;1736205;80;26682;-70
2020/12/08 05:01:52;;;;;;;52.78;24.05;;;;;;;1.72;76.63;100096.60;1725677;80;26852;-70
2020/12/08 05:04:26;;;;;;;49.30;22.73;;;;;;;1.75;76.71;100095.23;1747181;80;25740;-70
2020/12/08 05:07:03;;;;;;;48.33;24.05;;;;;;;1.77;76.70;100104.01;1731928;81;25806;-69
2020/12/08 05:09:30;;;;;;;48.52;23.32;;;;;;;1.77;76.68;100105.33;1737444;80;25858;-71
2020/12/08 05:11:59;;;;;;;55.17;22.77;;;;;;;1.75;76.57;100097.87;1728354;81;26714;-70
2020/12/08 05:14:27;;;;;;;63.78;26.77;;;;;;;1.74;76.68;100090.40;1738341;81;27800;-70
2020/12/08 05:17:04;;;;;;;52.53;24.45;;;;;;;1.74;76.74;100089.08;1707639;82;25783;-70
2020/12/08 05:19:32;;;;;;;52.23;24.02;;;;;;;1.73;76.69;100088.66;1732062;81;25837;-71
2020/12/08 05:21:59;;;;;;;49.95;23.50;;;;;;;1.72;76.74;100093.52;1712918;81;25912;-71
2020/12/08 05:24:30;;;;;;;50.05;22.10;;;;;;;1.71;76.73;100095.73;1740390;81;25978;-71
2020/12/08 05:27:04;;;;;;;55.48;23.90;;;;;;;1.69;76.61;100092.69;1727109;81;27302;-72
2020/12/08 05:29:35;;;;;;;47.38;21.90;;;;;;;1.64;76.66;100099.37;1767207;80;25794;-69
2020/12/08 05:32:29;;;;;;;50.95;22.48;;;;;;;1.65;76.75;100094.95;1761486;80;26658;-69
2020/12/08 05:34:55;;;;;;;45.65;22.60;;;;;;;1.63;76.72;100094.98;1716529;82;26378;-70
2020/12/08 05:37:25;;;;;;;53.80;23.47;;;;;;;1.61;76.74;100093.69;1706974;81;25840;-70
2020/12/08 05:39:53;;;;;;;55.40;23.47;;;;;;;1.62;76.75;100110.41;1703694;82;26154;-69
2020/12/08 05:42:21;;;;;;;43.58;20.77;;;;;;;1.61;76.78;100117.91;1728071;81;26485;-69
2020/12/08 05:44:51;;;;;;;56.50;25.35;;;;;;;1.59;76.73;100125.86;1703870;83;25870;-71
2020/12/08 05:47:21;;;;;;;53.13;23.55;;;;;;;1.60;76.78;100134.20;1716246;81;26571;-69
2020/12/08 05:50:02;;;;;;;43.20;22.05;;;;;;;1.63;76.82;100141.20;1696444;83;25874;-69
2020/12/08 05:52:32;;;;;;;68.22;23.45;;;;;;;1.66;76.82;100138.52;1726687;81;27902;-72
2020/12/08 05:55:16;;;;;;;53.10;24.63;;;;;;;1.67;76.74;100137.62;1704909;83;26051;-69
2020/12/08 05:57:45;;;;;;;50.85;22.58;;;;;;;1.66;76.83;100133.23;1722187;81;25777;-70
2020/12/08 06:00:26;;;;;;;57.35;24.12;;;;;;;1.65;76.74;100138.55;1720789;81;27857;-69
2020/12/08 06:03:14;;;;;;;51.42;21.97;;;;;;;1.62;76.79;100137.70;1710916;83;25887;-70
2020/12/08 06:05:46;;;;;;;55.75;22.22;;;;;;;1.60;76.71;100142.58;1692656;83;28133;-69
2020/12/08 06:08:24;;;;;;;50.33;24.02;;;;;;;1.59;76.82;100151.39;1697191;81;25803;-70
2020/12/08 06:10:54;;;;;;;57.00;23.00;;;;;;;1.61;76.81;100153.12;1703505;82;25829;-69
2020/12/08 06:13:30;;;;;;;46.68;23.52;;;;;;;1.62;76.80;100154.86;1728806;81;25962;-69
2020/12/08 06:16:01;;;;;;;47.25;23.98;;;;;;;1.59;76.78;100148.75;1713445;81;25828;-69
2020/12/08 06:18:38;;;;;;;48.05;22.55;;;;;;;1.59;76.80;100147.44;1699443;81;27410;-70
2020/12/08 06:21:27;;;;;;;50.98;22.42;;;;;;;1.59;76.84;100150.08;1698286;81;26644;-71
2020/12/08 06:23:59;;;;;;;49.45;23.30;;;;;;;1.59;76.83;100148.31;1697675;81;25827;-70
2020/12/08 06:26:37;;;;;;;49.83;22.20;;;;;;;1.59;76.85;100156.23;1723082;81;26035;-71
2020/12/08 06:29:08;;;;;;;46.28;21.60;;;;;;;1.61;76.83;100159.72;1701228;83;25836;-70
2020/12/08 06:31:44;;;;;;;47.05;22.73;;;;;;;1.63;76.88;100168.50;1692146;82;26919;-70
2020/12/08 06:34:31;;;;;;;53.55;24.80;;;;;;;1.66;76.88;100172.86;1723522;81;25954;-70
2020/12/08 06:36:53;;;;;;;52.27;21.95;;;;;;;1.66;76.84;100172.86;1688039;83;30936;-69
2020/12/08 06:39:22;;;;;;;46.00;22.48;;;;;;;1.62;76.84;100173.80;1717870;81;26757;-69
2020/12/08 06:41:51;;;;;;;49.20;23.12;;;;;;;1.62;76.85;100183.05;1713448;81;25849;-69
2020/12/08 06:44:22;;;;;;;45.10;20.88;;;;;;;1.64;76.86;100194.47;1692717;81;27785;-70
2020/12/08 06:46:59;;;;;;;42.10;20.20;;;;;;;1.60;76.78;100189.67;1717285;81;25787;-70
2020/12/08 06:49:36;;;;;;;42.88;20.68;;;;;;;1.59;76.81;100190.57;1691823;81;26043;-70
2020/12/08 06:52:09;;;;;;;44.60;21.00;;;;;;;1.64;76.93;100189.19;1691188;83;26044;-70
2020/12/08 06:54:37;;;;;;;48.92;23.00;;;;;;;1.64;76.86;100182.58;1716738;81;25848;-70
2020/12/08 06:57:05;;;;;;;50.67;21.73;;;;;;;1.63;76.86;100191.40;1716519;81;27356;-69
2020/12/08 06:59:33;;;;;;;55.75;23.50;;;;;;;1.60;76.83;100184.39;1721073;81;25922;-70
2020/12/08 07:02:00;;;;;;;45.43;21.30;;;;;;;1.56;76.80;100181.37;1718727;81;25855;-68
2020/12/08 07:04:30;;;;;;;48.95;20.57;;;;;;;1.57;76.86;100187.52;1718071;81;25981;-69
2020/12/08 07:06:59;;;;;;;48.45;20.95;;;;;;;1.59;76.90;100189.70;1692044;83;25809;-69
2020/12/08 07:09:36;;;;;;;47.30;21.57;;;;;;;1.56;76.77;100213.06;1735463;81;27434;-70
2020/12/08 07:12:04;;;;;;;47.20;21.42;;;;;;;1.56;76.92;100217.47;1728861;81;26400;-69
2020/12/08 07:14:36;;;;;;;47.78;22.67;;;;;;;1.56;76.90;100211.74;1721784;81;25891;-71
2020/12/08 07:17:02;;;;;;;53.60;23.87;;;;;;;1.57;76.90;100209.97;1717132;82;26466;-71
2020/12/08 07:19:30;;;;;;;57.45;24.07;;;;;;;1.57;76.92;100209.53;1709284;81;25890;-70
2020/12/08 07:21:59;;;;;;;47.55;21.23;;;;;;;1.55;76.91;100198.56;1695904;83;27765;-70
2020/12/08 07:24:30;;;;;;;46.55;21.52;;;;;;;1.56;76.88;100199.86;1711696;81;25999;-70
2020/12/08 07:27:00;;;;;;;47.05;21.75;;;;;;;1.54;76.92;100177.88;1697179;82;25939;-70
2020/12/08 07:29:28;;;;;;;46.23;20.02;;;;;;;1.54;76.92;100173.91;1702924;81;31671;-70
2020/12/08 07:31:56;;;;;;;46.33;22.25;;;;;;;1.58;76.99;100195.88;1694706;83;25917;-69
2020/12/08 07:34:23;;;;;;;44.40;20.88;;;;;;;1.59;77.02;100209.06;1704139;81;26230;-70
2020/12/08 07:36:51;;;;;;;44.42;20.62;;;;;;;1.61;76.90;100213.87;1706062;82;25835;-72
2020/12/08 07:39:20;;;;;;;50.43;21.60;;;;;;;1.61;76.99;100209.91;1725432;80;25765;-69
2020/12/08 07:41:48;;;;;;;50.83;23.38;;;;;;;1.61;77.05;100190.09;1749832;80;25724;-70
2020/12/08 07:44:17;;;;;;;44.50;21.33;;;;;;;1.63;77.05;100185.67;1771997;79;25940;-69
2020/12/08 07:46:50;;;;;;;45.55;20.68;;;;;;;1.67;77.03;100187.81;1758724;81;28078;-70
2020/12/08 07:49:19;;;;;;;51.33;22.45;;;;;;;1.72;76.98;100190.39;1783123;79;25844;-71
2020/12/08 07:51:51;;;;;;;52.75;20.82;;;;;;;1.69;76.98;100195.72;1745151;80;25878;-69
2020/12/08 07:54:19;;;;;;;47.60;21.80;;;;;;;1.71;76.98;100203.17;1751483;79;25967;-69
2020/12/08 07:56:46;;;;;;;46.10;21.33;;;;;;;1.72;76.99;100202.28;1747213;81;25849;-69
2020/12/08 07:59:14;;;;;;;57.20;23.62;;;;;;;1.71;77.02;100221.67;1734565;79;27804;-70
2020/12/08 08:01:44;;;;;;;51.28;22.27;;;;;;;1.68;76.98;100221.72;1757089;80;25743;-69
2020/12/08 08:04:12;;;;;;;46.50;22.02;;;;;;;1.65;76.96;100233.64;1748083;79;26463;-69
2020/12/08 08:06:40;;;;;;;49.88;21.77;;;;;;;1.63;76.99;100229.25;1743289;80;25380;-71
2020/12/08 08:09:08;;;;;;;49.27;20.82;;;;;;;1.67;77.06;100216.00;1746698;81;25853;-69
2020/12/08 08:11:36;;;;;;;51.18;21.87;;;;;;;1.71;77.10;100209.33;1738373;80;28185;-70
2020/12/08 08:14:04;;;;;;;46.92;20.80;;;;;;;1.74;77.02;100203.13;1759559;79;26086;-68
2020/12/08 08:16:34;;;;;;;52.48;20.70;;;;;;;1.74;77.01;100197.40;1775997;79;25870;-70
2020/12/08 08:19:03;;;;;;;48.23;20.85;;;;;;;1.70;76.89;100194.83;1739412;81;25852;-70
2020/12/08 08:21:31;;;;;;;51.28;22.13;;;;;;;1.68;76.99;100215.11;1714530;81;25851;-69
2020/12/08 08:23:59;;;;;;;40.45;19.65;;;;;;;1.70;77.03;100216.83;1770196;79;26072;-70
2020/12/08 08:26:28;;;;;;;50.00;21.57;;;;;;;1.75;77.07;100215.45;1778139;79;26478;-70
2020/12/08 08:28:56;;;;;;;46.65;21.25;;;;;;;1.77;77.03;100214.98;1744347;80;25823;-70
2020/12/08 08:31:23;;;;;;;43.80;20.95;;;;;;;1.75;76.95;100210.16;1737668;79;26101;-70
2020/12/08 08:33:51;;;;;;;46.35;22.30;;;;;;;1.71;76.94;100214.62;1744908;80;25890;-70
2020/12/08 08:36:19;;;;;;;48.40;20.95;;;;;;;1.72;77.02;100236.18;1745763;79;27893;-72
2020/12/08 08:38:47;;;;;;;43.00;20.43;;;;;;;1.72;76.96;100236.18;1723665;81;25761;-70
2020/12/08 08:41:15;;;;;;;45.28;21.30;;;;;;;1.68;76.88;100239.76;1721919;80;25769;-70
2020/12/08 08:43:43;;;;;;;50.10;20.40;;;;;;;1.70;77.04;100243.70;1728208;81;26633;-70
2020/12/08 08:46:12;;;;;;;52.30;21.20;;;;;;;1.71;77.02;100238.39;1728921;80;25719;-71
2020/12/08 08:48:40;;;;;;;52.43;24.05;;;;;;;1.73;76.97;100242.34;1733447;81;28487;-71
2020/12/08 08:51:08;;;;;;;51.00;22.45;;;;;;;1.75;77.07;100248.47;1728041;81;25798;-72
2020/12/08 08:53:37;;;;;;;50.70;19.92;;;;;;;1.80;77.10;100251.92;1721985;80;25901;-70
2020/12/08 08:56:05;;;;;;;59.30;24.12;;;;;;;1.80;76.96;100266.01;1739262;81;25795;-71
2020/12/08 08:58:33;;;;;;;42.35;21.15;;;;;;;1.74;76.95;100271.83;1729466;81;25950;-71
2020/12/08 09:01:00;;;;;;;47.62;21.55;;;;;;;1.72;76.90;100267.01;1719857;81;27877;-69
2020/12/08 09:03:28;;;;;;;50.48;21.27;;;;;;;1.71;76.95;100264.81;1730241;81;26028;-71
2020/12/08 09:05:56;;;;;;;53.48;21.35;;;;;;;1.70;76.91;100262.19;1729977;81;25977;-70
2020/12/08 09:08:24;;;;;;;60.03;26.75;;;;;;;1.74;77.02;100266.09;1724325;81;25876;-70
2020/12/08 09:10:53;;;;;;;50.80;26.00;;;;;;;1.77;77.05;100262.09;1730221;81;26292;-69
2020/12/08 09:13:21;;;;;;;53.40;23.73;;;;;;;1.80;77.02;100254.13;1729600;81;28515;-70
2020/12/08 09:15:49;;;;;;;52.65;23.83;;;;;;;1.80;77.00;100254.56;1712158;82;26265;-69
2020/12/08 09:18:17;;;;;;;47.50;23.45;;;;;;;1.82;77.04;100257.61;1702633;81;25902;-69
2020/12/08 09:20:45;;;;;;;50.60;24.52;;;;;;;1.82;76.96;100249.69;1709425;82;25982;-70
2020/12/08 09:23:13;;;;;;;52.60;24.87;;;;;;;1.82;77.01;100247.49;1701676;81;25951;-71
2020/12/08 09:25:41;;;;;;;59.53;24.47;;;;;;;1.86;77.04;100243.91;1729987;81;27817;-72
2020/12/08 09:28:09;;;;;;;41.35;21.23;;;;;;;1.93;77.05;100246.89;1705506;81;26218;-70
2020/12/08 09:30:37;;;;;;;52.38;24.25;;;;;;;1.92;76.85;100249.11;1690892;82;25994;-70
2020/12/08 09:33:05;;;;;;;43.60;19.57;;;;;;;1.90;77.01;100249.12;1726852;81;26130;-70
2020/12/08 09:35:33;;;;;;;48.33;22.25;;;;;;;1.92;76.96;100242.50;1720222;81;25866;-70
2020/12/08 09:38:00;;;;;;;49.20;22.37;;;;;;;1.88;76.87;100237.70;1708824;81;26839;-70
2020/12/08 09:40:28;;;;;;;42.20;21.12;;;;;;;1.87;76.91;100245.21;1693562;81;26090;-70
2020/12/08 09:42:56;;;;;;;43.83;21.10;;;;;;;1.85;76.86;100235.56;1693426;83;25877;-70
2020/12/08 09:45:24;;;;;;;40.15;19.50;;;;;;;1.85;76.92;100246.12;1715611;81;26707;-70
2020/12/08 09:47:52;;;;;;;47.27;20.43;;;;;;;1.84;76.88;100247.02;1710195;81;25860;-69
2020/12/08 09:50:19;;;;;;;45.45;21.55;;;;;;;1.84;76.85;100250.54;1698093;81;28041;-72
2020/12/08 09:52:48;;;;;;;50.88;24.15;;;;;;;1.85;76.93;100255.38;1691756;82;25733;-70
2020/12/08 09:55:16;;;;;;;43.58;20.12;;;;;;;1.84;76.90;100251.86;1719605;81;26062;-69
2020/12/08 09:57:44;;;;;;;47.50;21.62;;;;;;;1.90;77.02;100251.77;1717609;81;25773;-70
2020/12/08 10:00:12;;;;;;;51.42;21.57;;;;;;;1.92;76.96;100254.39;1690930;81;25730;-71
2020/12/08 10:02:40;;;;;;;43.38;20.75;;;;;;;1.97;76.96;100252.55;1696736;82;27510;-71
2020/12/08 10:05:07;;;;;;;42.80;19.17;;;;;;;1.95;76.82;100257.86;1703119;82;25929;-70
2020/12/08 10:07:35;;;;;;;45.55;22.50;;;;;;;1.95;76.91;100263.59;1708130;81;25848;-72
2020/12/08 10:10:04;;;;;;;45.33;20.48;;;;;;;2.04;77.03;100257.30;1695083;83;26652;-71
2020/12/08 10:12:32;;;;;;;44.70;19.87;;;;;;;2.11;77.00;100259.83;1715498;81;26437;-68
2020/12/08 10:15:00;;;;;;;46.80;22.07;;;;;;;2.15;77.01;100252.28;1693311;81;27798;-69
2020/12/08 10:17:28;;;;;;;46.40;22.40;;;;;;;2.15;76.89;100253.61;1689177;81;25863;-71
2020/12/08 10:19:56;;;;;;;55.08;26.87;;;;;;;2.08;76.72;100259.01;1695919;82;25705;-69
2020/12/08 10:22:24;;;;;;;59.35;24.15;;;;;;;2.02;76.82;100262.61;1693961;82;26763;-69
2020/12/08 10:24:52;;;;;;;43.40;19.27;;;;;;;2.02;76.78;100257.33;1696517;82;26090;-69
2020/12/08 10:27:20;;;;;;;41.75;20.70;;;;;;;2.05;76.84;100253.77;1696381;81;28680;-70
2020/12/08 10:29:48;;;;;;;42.73;19.40;;;;;;;2.01;76.79;100245.01;1724679;81;26488;-69
2020/12/08 10:32:16;;;;;;;55.80;22.50;;;;;;;2.08;76.90;100250.63;1717424;81;25825;-69
2020/12/08 10:34:44;;;;;;;49.00;21.68;;;;;;;2.13;76.92;100243.50;1691864;81;26094;-69
2020/12/08 10:37:12;;;;;;;49.45;22.30;;;;;;;2.12;76.79;100238.23;1716231;81;25426;-69
2020/12/08 10:39:40;;;;;;;54.08;24.05;;;;;;;2.12;76.88;100239.11;1722162;81;26837;-70
2020/12/08 10:42:07;;;;;;;44.48;20.12;;;;;;;2.11;76.81;100237.81;1707144;81;25995;-71
2020/12/08 10:44:35;;;;;;;43.38;20.55;;;;;;;2.12;76.78;100231.17;1739281;81;25843;-69
2020/12/08 10:47:03;;;;;;;43.80;20.45;;;;;;;2.14;76.78;100237.77;1698052;81;26093;-69
2020/12/08 10:49:31;;;;;;;44.25;19.80;;;;;;;2.18;76.83;100239.02;1743389;81;25922;-69
2020/12/08 10:51:59;;;;;;;49.70;21.73;;;;;;;2.20;76.74;100237.22;1708336;81;26365;-71
2020/12/08 10:54:28;;;;;;;50.73;21.20;;;;;;;2.19;76.74;100235.47;1735527;81;25890;-70
2020/12/08 10:56:55;;;;;;;49.10;22.07;;;;;;;2.22;76.82;100234.10;1699573;81;25831;-69
2020/12/08 10:59:23;;;;;;;46.55;21.80;;;;;;;2.22;76.74;100235.42;1708782;81;25900;-69
2020/12/08 11:01:55;;;;;;;53.98;24.27;;;;;;;2.26;76.82;100243.73;1717476;81;26387;-69
2020/12/08 11:04:23;;;;;;;50.23;22.30;;;;;;;2.30;76.82;100252.94;1707093;81;29049;-71
2020/12/08 11:06:51;;;;;;;44.53;21.12;;;;;;;2.33;76.77;100240.54;1714041;81;26000;-71
2020/12/08 11:09:19;;;;;;;50.25;22.70;;;;;;;2.34;76.70;100238.77;1714076;81;25446;-69
2020/12/08 11:11:47;;;;;;;48.75;20.92;;;;;;;2.33;76.69;100243.63;1709762;82;26176;-70
2020/12/08 11:14:15;;;;;;;49.08;21.25;;;;;;;2.35;76.69;100240.52;1709574;81;25761;-71
2020/12/08 11:16:43;;;;;;;46.45;20.90;;;;;;;2.35;76.65;100237.42;1707255;81;27770;-71
2020/12/08 11:19:10;;;;;;;45.17;21.27;;;;;;;2.36;76.69;100238.30;1714139;81;25851;-70
2020/12/08 11:21:39;;;;;;;54.00;22.50;;;;;;;2.38;76.71;100236.50;1709696;81;25915;-71
2020/12/08 11:24:08;;;;;;;50.03;21.73;;;;;;;2.33;76.59;100237.02;1716139;81;26788;-70